sensor_id;sensor_type;location;lat;lon;timestamp;pressure;altitude;pressure_sealevel;temperature
68440;BMP180;55421;51.600;5.718;2023-10-09T00:02:13;222329.59;;;14.10
68440;BMP180;55421;51.600;5.718;2023-10-09T00:04:43;222319.59;;;14.00
68440;BMP180;55421;51.600;5.718;2023-10-09T00:07:12;222311.20;;;14.00
68440;BMP180;55421;51.600;5.718;2023-10-09T00:09:39;222310.00;;;14.00
68440;BMP180;55421;51.600;5.718;2023-10-09T00:12:19;222300.80;;;14.00
68440;BMP180;55421;51.600;5.718;2023-10-09T00:14:50;222296.41;;;14.00
68440;BMP180;55421;51.600;5.718;2023-10-09T00:17:17;222290.00;;;14.00
68440;BMP180;55421;51.600;5.718;2023-10-09T00:19:45;222287.20;;;14.00
68440;BMP180;55421;51.600;5.718;2023-10-09T00:22:15;222282.80;;;14.00
68440;BMP180;55421;51.600;5.718;2023-10-09T00:25:05;222280.00;;;14.00
68440;BMP180;55421;51.600;5.718;2023-10-09T00:27:40;222278.00;;;14.00
68440;BMP180;55421;51.600;5.718;2023-10-09T00:30:15;222277.59;;;14.00
68440;BMP180;55421;51.600;5.718;2023-10-09T00:32:46;222279.20;;;14.00
68440;BMP180;55421;51.600;5.718;2023-10-09T00:35:26;222282.00;;;14.00
68440;BMP180;55421;51.600;5.718;2023-10-09T00:38:11;222291.59;;;14.00
68440;BMP180;55421;51.600;5.718;2023-10-09T00:40:47;222304.80;;;14.00
68440;BMP180;55421;51.600;5.718;2023-10-09T00:43:23;222319.59;;;14.00
68440;BMP180;55421;51.600;5.718;2023-10-09T00:45:58;222337.80;;;14.10
68440;BMP180;55421;51.600;5.718;2023-10-09T00:48:38;222358.20;;;14.10
68440;BMP180;55421;51.600;5.718;2023-10-09T00:51:08;222376.00;;;14.10
68440;BMP180;55421;51.600;5.718;2023-10-09T00:53:48;222386.41;;;14.18
68440;BMP180;55421;51.600;5.718;2023-10-09T00:56:22;222402.80;;;14.20
68440;BMP180;55421;51.600;5.718;2023-10-09T00:58:59;222424.41;;;14.20
68440;BMP180;55421;51.600;5.718;2023-10-09T01:01:32;222437.59;;;14.20
68440;BMP180;55421;51.600;5.718;2023-10-09T01:04:03;222440.80;;;14.22
68440;BMP180;55421;51.600;5.718;2023-10-09T01:06:33;222442.41;;;14.24
68440;BMP180;55421;51.600;5.718;2023-10-09T01:09:00;222445.20;;;14.28
68440;BMP180;55421;51.600;5.718;2023-10-09T01:11:36;222446.80;;;14.30
68440;BMP180;55421;51.600;5.718;2023-10-09T01:14:17;222450.00;;;14.30
68440;BMP180;55421;51.600;5.718;2023-10-09T01:16:47;222453.20;;;14.30
68440;BMP180;55421;51.600;5.718;2023-10-09T01:19:14;222451.59;;;14.30
68440;BMP180;55421;51.600;5.718;2023-10-09T01:21:54;222454.80;;;14.30
68440;BMP180;55421;51.600;5.718;2023-10-09T01:24:20;222454.41;;;14.30
68440;BMP180;55421;51.600;5.718;2023-10-09T01:26:49;222456.80;;;14.30
68440;BMP180;55421;51.600;5.718;2023-10-09T01:29:21;222452.41;;;14.30
68440;BMP180;55421;51.600;5.718;2023-10-09T01:31:54;222451.59;;;14.30
68440;BMP180;55421;51.600;5.718;2023-10-09T01:34:30;222454.41;;;14.30
68440;BMP180;55421;51.600;5.718;2023-10-09T01:37:12;222466.00;;;14.30
68440;BMP180;55421;51.600;5.718;2023-10-09T01:39:46;222469.20;;;14.30
68440;BMP180;55421;51.600;5.718;2023-10-09T01:42:15;222472.41;;;14.30
68440;BMP180;55421;51.600;5.718;2023-10-09T01:44:57;222480.41;;;14.30
68440;BMP180;55421;51.600;5.718;2023-10-09T01:47:49;222480.00;;;14.30
68440;BMP180;55421;51.600;5.718;2023-10-09T01:50:20;222483.20;;;14.30
68440;BMP180;55421;51.600;5.718;2023-10-09T01:53:01;222490.00;;;14.34
68440;BMP180;55421;51.600;5.718;2023-10-09T01:55:30;222493.20;;;14.36
68440;BMP180;55421;51.600;5.718;2023-10-09T01:58:01;222500.80;;;14.40
68440;BMP180;55421;51.600;5.718;2023-10-09T02:00:47;222513.41;;;14.40
68440;BMP180;55421;51.600;5.718;2023-10-09T02:03:22;222517.20;;;14.40
68440;BMP180;55421;51.600;5.718;2023-10-09T02:05:56;222525.00;;;14.40
68440;BMP180;55421;51.600;5.718;2023-10-09T02:08:26;222536.20;;;14.40
68440;BMP180;55421;51.600;5.718;2023-10-09T02:10:56;222542.59;;;14.42
68440;BMP180;55421;51.600;5.718;2023-10-09T02:13:23;222551.80;;;14.48
68440;BMP180;55421;51.600;5.718;2023-10-09T02:15:56;222561.80;;;14.50
68440;BMP180;55421;51.600;5.718;2023-10-09T02:18:39;222570.20;;;14.50
68440;BMP180;55421;51.600;5.718;2023-10-09T02:21:07;222578.20;;;14.50
68440;BMP180;55421;51.600;5.718;2023-10-09T02:23:35;222588.59;;;14.50
68440;BMP180;55421;51.600;5.718;2023-10-09T02:26:08;222598.41;;;14.52
68440;BMP180;55421;51.600;5.718;2023-10-09T02:28:36;222606.80;;;14.52
68440;BMP180;55421;51.600;5.718;2023-10-09T02:31:12;222621.59;;;14.56
68440;BMP180;55421;51.600;5.718;2023-10-09T02:33:42;222624.80;;;14.60
68440;BMP180;55421;51.600;5.718;2023-10-09T02:36:10;222631.20;;;14.60
68440;BMP180;55421;51.600;5.718;2023-10-09T02:38:39;222631.20;;;14.60
68440;BMP180;55421;51.600;5.718;2023-10-09T02:41:09;222640.80;;;14.60
68440;BMP180;55421;51.600;5.718;2023-10-09T02:43:38;222644.00;;;14.60
68440;BMP180;55421;51.600;5.718;2023-10-09T02:46:15;222651.59;;;14.60
68440;BMP180;55421;51.600;5.718;2023-10-09T02:48:50;222652.80;;;14.60
68440;BMP180;55421;51.600;5.718;2023-10-09T02:51:20;222657.20;;;14.60
68440;BMP180;55421;51.600;5.718;2023-10-09T02:53:54;222661.20;;;14.60
68440;BMP180;55421;51.600;5.718;2023-10-09T02:56:22;222666.00;;;14.62
68440;BMP180;55421;51.600;5.718;2023-10-09T02:59:09;222669.00;;;14.62
68440;BMP180;55421;51.600;5.718;2023-10-09T03:01:39;222673.41;;;14.66
68440;BMP180;55421;51.600;5.718;2023-10-09T03:04:07;222674.80;;;14.70
68440;BMP180;55421;51.600;5.718;2023-10-09T03:06:37;222672.00;;;14.68
68440;BMP180;55421;51.600;5.718;2023-10-09T03:09:12;222674.80;;;14.70
68440;BMP180;55421;51.600;5.718;2023-10-09T03:11:47;222672.20;;;14.70
68440;BMP180;55421;51.600;5.718;2023-10-09T03:14:14;222674.80;;;14.68
68440;BMP180;55421;51.600;5.718;2023-10-09T03:16:43;222680.20;;;14.70
68440;BMP180;55421;51.600;5.718;2023-10-09T03:19:09;222681.80;;;14.70
68440;BMP180;55421;51.600;5.718;2023-10-09T03:21:37;222681.80;;;14.70
68440;BMP180;55421;51.600;5.718;2023-10-09T03:24:03;222682.20;;;14.70
68440;BMP180;55421;51.600;5.718;2023-10-09T03:26:31;222679.20;;;14.70
68440;BMP180;55421;51.600;5.718;2023-10-09T03:28:58;222682.00;;;14.70
68440;BMP180;55421;51.600;5.718;2023-10-09T03:31:28;222681.59;;;14.70
68440;BMP180;55421;51.600;5.718;2023-10-09T03:33:58;222676.41;;;14.68
68440;BMP180;55421;51.600;5.718;2023-10-09T03:36:25;222680.41;;;14.70
68440;BMP180;55421;51.600;5.718;2023-10-09T03:38:55;222677.20;;;14.70
68440;BMP180;55421;51.600;5.718;2023-10-09T03:41:24;222683.59;;;14.70
68440;BMP180;55421;51.600;5.718;2023-10-09T03:43:55;222680.59;;;14.70
68440;BMP180;55421;51.600;5.718;2023-10-09T03:46:21;222680.41;;;14.70
68440;BMP180;55421;51.600;5.718;2023-10-09T03:48:52;222683.20;;;14.70
68440;BMP180;55421;51.600;5.718;2023-10-09T03:51:22;222679.00;;;14.70
68440;BMP180;55421;51.600;5.718;2023-10-09T03:53:51;222682.20;;;14.70
68440;BMP180;55421;51.600;5.718;2023-10-09T03:56:22;222680.80;;;14.70
68440;BMP180;55421;51.600;5.718;2023-10-09T03:58:51;222681.80;;;14.70
68440;BMP180;55421;51.600;5.718;2023-10-09T04:01:22;222683.59;;;14.70
68440;BMP180;55421;51.600;5.718;2023-10-09T04:03:50;222677.41;;;14.70
68440;BMP180;55421;51.600;5.718;2023-10-09T04:06:27;222684.80;;;14.70
68440;BMP180;55421;51.600;5.718;2023-10-09T04:09:05;222684.80;;;14.70
68440;BMP180;55421;51.600;5.718;2023-10-09T04:11:51;222686.20;;;14.70
68440;BMP180;55421;51.600;5.718;2023-10-09T04:14:41;222701.41;;;14.70
68440;BMP180;55421;51.600;5.718;2023-10-09T04:17:16;222703.00;;;14.70
68440;BMP180;55421;51.600;5.718;2023-10-09T04:19:49;222709.41;;;14.70
68440;BMP180;55421;51.600;5.718;2023-10-09T04:22:40;222707.80;;;14.70
68440;BMP180;55421;51.600;5.718;2023-10-09T04:25:18;222707.80;;;14.70
68440;BMP180;55421;51.600;5.718;2023-10-09T04:28:09;222712.20;;;14.70
68440;BMP180;55421;51.600;5.718;2023-10-09T04:30:45;222715.00;;;14.70
68440;BMP180;55421;51.600;5.718;2023-10-09T04:33:22;222718.20;;;14.72
68440;BMP180;55421;51.600;5.718;2023-10-09T04:39:03;222739.41;;;14.80
68440;BMP180;55421;51.600;5.718;2023-10-09T04:41:30;222750.59;;;14.80
68440;BMP180;55421;51.600;5.718;2023-10-09T04:44:09;222759.80;;;14.80
68440;BMP180;55421;51.600;5.718;2023-10-09T04:46:46;222772.59;;;14.80
68440;BMP180;55421;51.600;5.718;2023-10-09T04:49:32;222774.20;;;14.82
68440;BMP180;55421;51.600;5.718;2023-10-09T04:52:18;222775.80;;;14.82
68440;BMP180;55421;51.600;5.718;2023-10-09T04:55:00;222771.00;;;14.80
68440;BMP180;55421;51.600;5.718;2023-10-09T04:57:38;222769.41;;;14.80
68440;BMP180;55421;51.600;5.718;2023-10-09T05:00:16;222771.00;;;14.80
68440;BMP180;55421;51.600;5.718;2023-10-09T05:03:08;222759.80;;;14.80
68440;BMP180;55421;51.600;5.718;2023-10-09T05:05:40;222762.59;;;14.80
68440;BMP180;55421;51.600;5.718;2023-10-09T05:08:11;222759.80;;;14.80
68440;BMP180;55421;51.600;5.718;2023-10-09T05:10:47;222759.80;;;14.80
68440;BMP180;55421;51.600;5.718;2023-10-09T05:16:24;222749.00;;;14.80
68440;BMP180;55421;51.600;5.718;2023-10-09T05:18:56;222750.59;;;14.80
68440;BMP180;55421;51.600;5.718;2023-10-09T05:21:26;222752.20;;;14.80
68440;BMP180;55421;51.600;5.718;2023-10-09T05:24:02;222744.20;;;14.80
68440;BMP180;55421;51.600;5.718;2023-10-09T05:29:25;222747.41;;;14.80
68440;BMP180;55421;51.600;5.718;2023-10-09T05:32:04;222741.00;;;14.80
68440;BMP180;55421;51.600;5.718;2023-10-09T05:34:45;222742.59;;;14.80
68440;BMP180;55421;51.600;5.718;2023-10-09T05:37:42;222745.80;;;14.80
68440;BMP180;55421;51.600;5.718;2023-10-09T05:40:13;222737.80;;;14.80
68440;BMP180;55421;51.600;5.718;2023-10-09T05:42:43;222741.00;;;14.80
68440;BMP180;55421;51.600;5.718;2023-10-09T05:45:17;222737.80;;;14.80
68440;BMP180;55421;51.600;5.718;2023-10-09T05:47:45;222736.20;;;14.80
68440;BMP180;55421;51.600;5.718;2023-10-09T05:50:26;222736.20;;;14.80
68440;BMP180;55421;51.600;5.718;2023-10-09T05:52:56;222736.20;;;14.80
68440;BMP180;55421;51.600;5.718;2023-10-09T05:55:24;222734.59;;;14.80
68440;BMP180;55421;51.600;5.718;2023-10-09T05:58:09;222736.20;;;14.80
68440;BMP180;55421;51.600;5.718;2023-10-09T06:00:51;222745.80;;;14.80
68440;BMP180;55421;51.600;5.718;2023-10-09T06:03:36;222747.41;;;14.80
68440;BMP180;55421;51.600;5.718;2023-10-09T06:06:23;222753.80;;;14.80
68440;BMP180;55421;51.600;5.718;2023-10-09T06:09:04;222759.80;;;14.80
68440;BMP180;55421;51.600;5.718;2023-10-09T06:14:08;222771.00;;;14.80
68440;BMP180;55421;51.600;5.718;2023-10-09T06:16:39;222781.80;;;14.82
68440;BMP180;55421;51.600;5.718;2023-10-09T06:19:29;222787.00;;;14.90
68440;BMP180;55421;51.600;5.718;2023-10-09T06:21:59;222791.41;;;14.90
68440;BMP180;55421;51.600;5.718;2023-10-09T06:24:40;222799.41;;;14.90
68440;BMP180;55421;51.600;5.718;2023-10-09T06:27:11;222805.00;;;14.90
68440;BMP180;55421;51.600;5.718;2023-10-09T06:29:40;222812.00;;;14.90
68440;BMP180;55421;51.600;5.718;2023-10-09T06:32:12;222813.59;;;14.90
68440;BMP180;55421;51.600;5.718;2023-10-09T06:34:51;222824.80;;;14.90
68440;BMP180;55421;51.600;5.718;2023-10-09T06:37:22;222832.00;;;15.00
68440;BMP180;55421;51.600;5.718;2023-10-09T06:39:53;222841.59;;;15.00
68440;BMP180;55421;51.600;5.718;2023-10-09T06:42:27;222847.59;;;15.00
68440;BMP180;55421;51.600;5.718;2023-10-09T06:45:06;222857.80;;;15.00
68440;BMP180;55421;51.600;5.718;2023-10-09T06:47:35;222876.20;;;15.00
68440;BMP180;55421;51.600;5.718;2023-10-09T06:50:12;222881.00;;;15.00
68440;BMP180;55421;51.600;5.718;2023-10-09T06:52:54;222884.20;;;15.06
68440;BMP180;55421;51.600;5.718;2023-10-09T06:55:25;222887.00;;;15.10
68440;BMP180;55421;51.600;5.718;2023-10-09T06:58:03;222892.59;;;15.10
68440;BMP180;55421;51.600;5.718;2023-10-09T07:00:39;222897.80;;;15.10
68440;BMP180;55421;51.600;5.718;2023-10-09T07:03:28;222904.20;;;15.10
68440;BMP180;55421;51.600;5.718;2023-10-09T07:06:08;222907.41;;;15.10
68440;BMP180;55421;51.600;5.718;2023-10-09T07:08:55;222916.20;;;15.10
68440;BMP180;55421;51.600;5.718;2023-10-09T07:11:38;222923.80;;;15.10
68440;BMP180;55421;51.600;5.718;2023-10-09T07:14:19;222931.80;;;15.10
68440;BMP180;55421;51.600;5.718;2023-10-09T07:17:06;222945.80;;;15.18
68440;BMP180;55421;51.600;5.718;2023-10-09T07:19:50;222965.00;;;15.20
68440;BMP180;55421;51.600;5.718;2023-10-09T07:22:17;222980.41;;;15.20
68440;BMP180;55421;51.600;5.718;2023-10-09T07:24:49;222996.00;;;15.20
68440;BMP180;55421;51.600;5.718;2023-10-09T07:27:20;223009.59;;;15.28
68440;BMP180;55421;51.600;5.718;2023-10-09T07:30:08;223016.00;;;15.30
68440;BMP180;55421;51.600;5.718;2023-10-09T07:33:06;223034.00;;;15.30
68440;BMP180;55421;51.600;5.718;2023-10-09T07:35:44;223049.20;;;15.30
68440;BMP180;55421;51.600;5.718;2023-10-09T07:38:22;223065.20;;;15.38
68440;BMP180;55421;51.600;5.718;2023-10-09T07:40:51;223075.59;;;15.40
68440;BMP180;55421;51.600;5.718;2023-10-09T07:43:36;223088.41;;;15.40
68440;BMP180;55421;51.600;5.718;2023-10-09T07:46:06;223088.80;;;15.40
68440;BMP180;55421;51.600;5.718;2023-10-09T07:48:56;223094.80;;;15.40
68440;BMP180;55421;51.600;5.718;2023-10-09T07:51:24;223093.59;;;15.40
68440;BMP180;55421;51.600;5.718;2023-10-09T07:53:59;223099.20;;;15.40
68440;BMP180;55421;51.600;5.718;2023-10-09T07:56:37;223105.20;;;15.40
68440;BMP180;55421;51.600;5.718;2023-10-09T07:59:14;223102.41;;;15.40
68440;BMP180;55421;51.600;5.718;2023-10-09T08:01:49;223116.59;;;15.50
68440;BMP180;55421;51.600;5.718;2023-10-09T08:04:20;223130.20;;;15.50
68440;BMP180;55421;51.600;5.718;2023-10-09T08:07:04;223139.20;;;15.50
68440;BMP180;55421;51.600;5.718;2023-10-09T08:09:36;223141.00;;;15.50
68440;BMP180;55421;51.600;5.718;2023-10-09T08:12:14;223146.80;;;15.50
68440;BMP180;55421;51.600;5.718;2023-10-09T08:15:06;223153.80;;;15.50
68440;BMP180;55421;51.600;5.718;2023-10-09T08:17:53;223168.00;;;15.50
68440;BMP180;55421;51.600;5.718;2023-10-09T08:20:25;223187.59;;;15.60
68440;BMP180;55421;51.600;5.718;2023-10-09T08:22:54;223211.59;;;15.60
68440;BMP180;55421;51.600;5.718;2023-10-09T08:25:24;223234.41;;;15.68
68440;BMP180;55421;51.600;5.718;2023-10-09T08:28:03;223260.80;;;15.70
68440;BMP180;55421;51.600;5.718;2023-10-09T08:30:48;223296.20;;;15.80
68440;BMP180;55421;51.600;5.718;2023-10-09T08:33:35;223325.80;;;15.80
68440;BMP180;55421;51.600;5.718;2023-10-09T08:36:07;223349.80;;;15.90
68440;BMP180;55421;51.600;5.718;2023-10-09T08:38:34;223372.80;;;15.90
68440;BMP180;55421;51.600;5.718;2023-10-09T08:41:12;223406.41;;;16.00
68440;BMP180;55421;51.600;5.718;2023-10-09T08:46:20;223463.41;;;16.10
68440;BMP180;55421;51.600;5.718;2023-10-09T08:48:48;223496.20;;;16.10
68440;BMP180;55421;51.600;5.718;2023-10-09T08:51:17;223524.20;;;16.20
68440;BMP180;55421;51.600;5.718;2023-10-09T08:53:44;223537.41;;;16.20
68440;BMP180;55421;51.600;5.718;2023-10-09T08:56:22;223570.20;;;16.30
68440;BMP180;55421;51.600;5.718;2023-10-09T08:58:55;223603.59;;;16.30
68440;BMP180;55421;51.600;5.718;2023-10-09T09:01:23;223632.59;;;16.40
68440;BMP180;55421;51.600;5.718;2023-10-09T09:03:53;223677.80;;;16.40
68440;BMP180;55421;51.600;5.718;2023-10-09T09:06:22;223717.00;;;16.50
68440;BMP180;55421;51.600;5.718;2023-10-09T09:08:51;223762.20;;;16.60
68440;BMP180;55421;51.600;5.718;2023-10-09T09:11:26;223804.80;;;16.70
68440;BMP180;55421;51.600;5.718;2023-10-09T09:14:04;223842.80;;;16.70
68440;BMP180;55421;51.600;5.718;2023-10-09T09:16:34;223891.41;;;16.80
68440;BMP180;55421;51.600;5.718;2023-10-09T09:19:07;223938.00;;;16.90
68440;BMP180;55421;51.600;5.718;2023-10-09T09:21:43;223989.59;;;17.00
68440;BMP180;55421;51.600;5.718;2023-10-09T09:24:13;224051.59;;;17.10
68440;BMP180;55421;51.600;5.718;2023-10-09T09:27:02;224110.20;;;17.20
68440;BMP180;55421;51.600;5.718;2023-10-09T09:29:46;224180.80;;;17.30
68440;BMP180;55421;51.600;5.718;2023-10-09T09:32:30;224215.20;;;17.40
68440;BMP180;55421;51.600;5.718;2023-10-09T09:35:12;224241.41;;;17.40
68440;BMP180;55421;51.600;5.718;2023-10-09T09:37:53;224266.59;;;17.50
68440;BMP180;55421;51.600;5.718;2023-10-09T09:40:21;224287.80;;;17.50
68440;BMP180;55421;51.600;5.718;2023-10-09T09:42:59;224303.41;;;17.60
68440;BMP180;55421;51.600;5.718;2023-10-09T09:45:34;224311.00;;;17.60
68440;BMP180;55421;51.600;5.718;2023-10-09T09:48:03;224323.41;;;17.60
68440;BMP180;55421;51.600;5.718;2023-10-09T09:50:33;224346.20;;;17.60
68440;BMP180;55421;51.600;5.718;2023-10-09T09:53:03;224372.00;;;17.70
68440;BMP180;55421;51.600;5.718;2023-10-09T09:55:34;224417.20;;;17.78
68440;BMP180;55421;51.600;5.718;2023-10-09T09:58:15;224461.00;;;17.80
68440;BMP180;55421;51.600;5.718;2023-10-09T10:00:50;224485.00;;;17.90
68440;BMP180;55421;51.600;5.718;2023-10-09T10:03:38;224504.20;;;17.90
68440;BMP180;55421;51.600;5.718;2023-10-09T10:06:10;224529.41;;;18.00
68440;BMP180;55421;51.600;5.718;2023-10-09T10:08:41;224555.20;;;18.00
68440;BMP180;55421;51.600;5.718;2023-10-09T10:11:46;224586.41;;;18.00
68440;BMP180;55421;51.600;5.718;2023-10-09T10:14:18;224628.00;;;18.10
68440;BMP180;55421;51.600;5.718;2023-10-09T10:17:02;224648.80;;;18.20
68440;BMP180;55421;51.600;5.718;2023-10-09T10:23:16;224701.80;;;18.26
68440;BMP180;55421;51.600;5.718;2023-10-09T10:25:46;224724.41;;;18.30
68440;BMP180;55421;51.600;5.718;2023-10-09T10:28:23;224734.80;;;18.30
68440;BMP180;55421;51.600;5.718;2023-10-09T10:31:05;224765.59;;;18.40
68440;BMP180;55421;51.600;5.718;2023-10-09T10:36:23;224787.59;;;18.40
68440;BMP180;55421;51.600;5.718;2023-10-09T10:39:04;224802.00;;;18.40
68440;BMP180;55421;51.600;5.718;2023-10-09T10:41:31;224838.80;;;18.50
68440;BMP180;55421;51.600;5.718;2023-10-09T10:44:05;224880.59;;;18.60
68440;BMP180;55421;51.600;5.718;2023-10-09T10:47:12;224929.41;;;18.70
68440;BMP180;55421;51.600;5.718;2023-10-09T10:49:54;224958.41;;;18.70
68440;BMP180;55421;51.600;5.718;2023-10-09T10:52:26;224972.41;;;18.70
68440;BMP180;55421;51.600;5.718;2023-10-09T10:55:10;224972.41;;;18.70
68440;BMP180;55421;51.600;5.718;2023-10-09T10:58:16;224976.80;;;18.70
68440;BMP180;55421;51.600;5.718;2023-10-09T11:00:54;224983.20;;;18.72
68440;BMP180;55421;51.600;5.718;2023-10-09T11:03:25;224992.00;;;18.80
68440;BMP180;55421;51.600;5.718;2023-10-09T11:06:01;225003.20;;;18.80
68440;BMP180;55421;51.600;5.718;2023-10-09T11:08:47;225015.20;;;18.80
68440;BMP180;55421;51.600;5.718;2023-10-09T11:11:25;225034.59;;;18.82
68440;BMP180;55421;51.600;5.718;2023-10-09T11:14:09;225079.41;;;18.90
68440;BMP180;55421;51.600;5.718;2023-10-09T11:16:41;225106.59;;;19.00
68440;BMP180;55421;51.600;5.718;2023-10-09T11:19:12;225132.59;;;19.00
68440;BMP180;55421;51.600;5.718;2023-10-09T11:22:00;225184.59;;;19.10
68440;BMP180;55421;51.600;5.718;2023-10-09T11:24:34;225242.59;;;19.20
68440;BMP180;55421;51.600;5.718;2023-10-09T11:27:04;225290.20;;;19.30
68440;BMP180;55421;51.600;5.718;2023-10-09T11:29:35;225344.00;;;19.40
68440;BMP180;55421;51.600;5.718;2023-10-09T11:32:19;225374.80;;;19.46
68440;BMP180;55421;51.600;5.718;2023-10-09T11:34:50;225404.00;;;19.50
68440;BMP180;55421;51.600;5.718;2023-10-09T11:37:23;225433.59;;;19.60
68440;BMP180;55421;51.600;5.718;2023-10-09T11:39:57;225471.80;;;19.60
68440;BMP180;55421;51.600;5.718;2023-10-09T11:42:28;225500.41;;;19.70
68440;BMP180;55421;51.600;5.718;2023-10-09T11:45:06;225532.41;;;19.70
68440;BMP180;55421;51.600;5.718;2023-10-09T11:47:51;225555.20;;;19.80
68440;BMP180;55421;51.600;5.718;2023-10-09T11:50:45;225574.00;;;19.80
68440;BMP180;55421;51.600;5.718;2023-10-09T11:53:19;225597.20;;;19.82
68440;BMP180;55421;51.600;5.718;2023-10-09T11:55:50;225588.00;;;19.80
68440;BMP180;55421;51.600;5.718;2023-10-09T11:58:19;225584.41;;;19.80
68440;BMP180;55421;51.600;5.718;2023-10-09T12:00:54;225577.20;;;19.80
68440;BMP180;55421;51.600;5.718;2023-10-09T12:03:44;225556.80;;;19.80
68440;BMP180;55421;51.600;5.718;2023-10-09T12:06:17;225548.80;;;19.72
68440;BMP180;55421;51.600;5.718;2023-10-09T12:08:49;225548.80;;;19.70
68440;BMP180;55421;51.600;5.718;2023-10-09T12:11:16;225553.59;;;19.78
68440;BMP180;55421;51.600;5.718;2023-10-09T12:13:49;225555.20;;;19.80
68440;BMP180;55421;51.600;5.718;2023-10-09T12:16:23;225550.41;;;19.76
68440;BMP180;55421;51.600;5.718;2023-10-09T12:18:54;225544.00;;;19.70
68440;BMP180;55421;51.600;5.718;2023-10-09T12:21:21;225538.00;;;19.70
68440;BMP180;55421;51.600;5.718;2023-10-09T12:23:49;225526.41;;;19.70
68440;BMP180;55421;51.600;5.718;2023-10-09T12:26:16;225519.20;;;19.70
68440;BMP180;55421;51.600;5.718;2023-10-09T12:28:45;225517.59;;;19.70
68440;BMP180;55421;51.600;5.718;2023-10-09T12:31:17;225517.20;;;19.70
68440;BMP180;55421;51.600;5.718;2023-10-09T12:33:47;225535.20;;;19.70
68440;BMP180;55421;51.600;5.718;2023-10-09T12:36:15;225553.59;;;19.76
68440;BMP180;55421;51.600;5.718;2023-10-09T12:38:49;225561.59;;;19.80
68440;BMP180;55421;51.600;5.718;2023-10-09T12:41:21;225581.20;;;19.80
68440;BMP180;55421;51.600;5.718;2023-10-09T12:43:55;225597.20;;;19.84
68440;BMP180;55421;51.600;5.718;2023-10-09T12:46:23;225615.59;;;19.90
68440;BMP180;55421;51.600;5.718;2023-10-09T12:48:52;225632.80;;;19.90
68440;BMP180;55421;51.600;5.718;2023-10-09T12:51:22;225646.59;;;19.90
68440;BMP180;55421;51.600;5.718;2023-10-09T12:53:55;225670.20;;;20.00
68440;BMP180;55421;51.600;5.718;2023-10-09T12:56:27;225702.20;;;20.00
68440;BMP180;55421;51.600;5.718;2023-10-09T12:59:14;225720.20;;;20.10
68440;BMP180;55421;51.600;5.718;2023-10-09T13:01:41;225756.80;;;20.10
68440;BMP180;55421;51.600;5.718;2023-10-09T13:04:13;225775.20;;;20.18
68440;BMP180;55421;51.600;5.718;2023-10-09T13:06:45;225798.41;;;20.20
68440;BMP180;55421;51.600;5.718;2023-10-09T13:09:17;225824.00;;;20.28
68440;BMP180;55421;51.600;5.718;2023-10-09T13:12:02;225857.00;;;20.30
68440;BMP180;55421;51.600;5.718;2023-10-09T13:14:28;225882.20;;;20.30
68440;BMP180;55421;51.600;5.718;2023-10-09T13:16:55;225898.20;;;20.40
68440;BMP180;55421;51.600;5.718;2023-10-09T13:19:22;225906.20;;;20.40
68440;BMP180;55421;51.600;5.718;2023-10-09T13:21:50;225917.41;;;20.40
68440;BMP180;55421;51.600;5.718;2023-10-09T13:24:17;225901.41;;;20.40
68440;BMP180;55421;51.600;5.718;2023-10-09T13:26:44;225903.00;;;20.40
68440;BMP180;55421;51.600;5.718;2023-10-09T13:29:13;225911.00;;;20.40
68440;BMP180;55421;51.600;5.718;2023-10-09T13:31:40;225912.59;;;20.40
68440;BMP180;55421;51.600;5.718;2023-10-09T13:34:13;225898.20;;;20.40
68440;BMP180;55421;51.600;5.718;2023-10-09T13:36:43;225875.80;;;20.30
68440;BMP180;55421;51.600;5.718;2023-10-09T13:39:25;225842.59;;;20.30
68440;BMP180;55421;51.600;5.718;2023-10-09T13:41:58;225819.00;;;20.20
68440;BMP180;55421;51.600;5.718;2023-10-09T13:44:32;225800.00;;;20.20
68440;BMP180;55421;51.600;5.718;2023-10-09T13:47:02;225797.20;;;20.20
68440;BMP180;55421;51.600;5.718;2023-10-09T13:49:32;225794.41;;;20.20
68440;BMP180;55421;51.600;5.718;2023-10-09T13:52:01;225803.59;;;20.20
68440;BMP180;55421;51.600;5.718;2023-10-09T13:54:30;225827.20;;;20.24
68440;BMP180;55421;51.600;5.718;2023-10-09T13:57:03;225839.41;;;20.30
68440;BMP180;55421;51.600;5.718;2023-10-09T13:59:32;225843.80;;;20.30
68440;BMP180;55421;51.600;5.718;2023-10-09T14:02:02;225834.59;;;20.30
68440;BMP180;55421;51.600;5.718;2023-10-09T14:04:36;225828.20;;;20.26
68440;BMP180;55421;51.600;5.718;2023-10-09T14:07:02;225820.59;;;20.20
68440;BMP180;55421;51.600;5.718;2023-10-09T14:09:32;225819.00;;;20.20
68440;BMP180;55421;51.600;5.718;2023-10-09T14:12:06;225822.59;;;20.26
68440;BMP180;55421;51.600;5.718;2023-10-09T14:14:40;225843.80;;;20.30
68440;BMP180;55421;51.600;5.718;2023-10-09T14:17:18;225857.00;;;20.30
68440;BMP180;55421;51.600;5.718;2023-10-09T14:19:52;225870.59;;;20.30
68440;BMP180;55421;51.600;5.718;2023-10-09T14:22:24;225880.59;;;20.34
68440;BMP180;55421;51.600;5.718;2023-10-09T14:24:51;225891.80;;;20.40
68440;BMP180;55421;51.600;5.718;2023-10-09T14:27:26;225896.59;;;20.40
68440;BMP180;55421;51.600;5.718;2023-10-09T14:29:56;225880.59;;;20.36
68440;BMP180;55421;51.600;5.718;2023-10-09T14:32:26;225870.20;;;20.30
68440;BMP180;55421;51.600;5.718;2023-10-09T14:34:56;225857.00;;;20.30
68440;BMP180;55421;51.600;5.718;2023-10-09T14:37:27;225857.00;;;20.30
68440;BMP180;55421;51.600;5.718;2023-10-09T14:39:56;225857.80;;;20.30
68440;BMP180;55421;51.600;5.718;2023-10-09T14:42:23;225843.80;;;20.30
68440;BMP180;55421;51.600;5.718;2023-10-09T14:44:53;225833.00;;;20.28
68440;BMP180;55421;51.600;5.718;2023-10-09T14:47:21;225831.41;;;20.26
68440;BMP180;55421;51.600;5.718;2023-10-09T14:49:48;225848.20;;;20.30
68440;BMP180;55421;51.600;5.718;2023-10-09T14:52:15;225863.00;;;20.30
68440;BMP180;55421;51.600;5.718;2023-10-09T14:54:47;225883.80;;;20.36
68440;BMP180;55421;51.600;5.718;2023-10-09T14:57:14;225903.00;;;20.40
68440;BMP180;55421;51.600;5.718;2023-10-09T14:59:40;225898.20;;;20.40